Time;durP1;ratioP1;P1;durP2;ratioP2;P2;SDS_P1;SDS_P2;PMS_P1;PMS_P2;Temp;Humidity;BMP_temperature;BMP_pressure;BME280_temperature;BME280_humidity;BME280_pressure;Samples;Min_cycle;Max_cycle;Signal;HPM_P1;HPM_P2
2024/03/15 00:02:08;;;;;;;10.32;8.93;;;12.90;99.90;;;;;;5107106;27;20066;-72
2024/03/15 00:04:34;;;;;;;10.77;8.85;;;12.80;99.90;;;;;;5105775;27;20035;-72
2024/03/15 00:07:01;;;;;;;10.00;8.43;;;12.80;99.90;;;;;;5103399;27;20070;-72
2024/03/15 00:09:28;;;;;;;9.88;8.82;;;12.70;99.90;;;;;;5083444;28;20118;-72
2024/03/15 00:11:55;;;;;;;11.30;8.90;;;12.70;99.90;;;;;;5099453;27;20051;-72
2024/03/15 00:14:22;;;;;;;9.18;8.07;;;12.60;99.90;;;;;;5095863;28;20052;-72
2024/03/15 00:16:56;;;;;;;10.55;9.18;;;12.60;99.90;;;;;;5094922;27;20694;-72
2024/03/15 00:19:22;;;;;;;10.15;9.15;;;12.50;99.90;;;;;;5100608;27;20027;-72
2024/03/15 00:21:48;;;;;;;9.60;8.70;;;12.50;99.90;;;;;;5098672;27;20053;-72
2024/03/15 00:24:15;;;;;;;11.38;8.85;;;12.50;99.90;;;;;;5132356;27;20108;-73
2024/03/15 00:26:41;;;;;;;10.00;9.00;;;12.40;99.90;;;;;;5087209;28;20036;-73
2024/03/15 00:29:08;;;;;;;9.75;8.82;;;12.40;99.90;;;;;;5102476;28;20501;-72
2024/03/15 00:31:34;;;;;;;11.13;8.93;;;12.30;99.90;;;;;;5088389;28;20101;-72
2024/03/15 00:34:00;;;;;;;11.57;8.50;;;12.40;99.90;;;;;;5098415;28;20100;-72
2024/03/15 00:36:26;;;;;;;8.73;7.90;;;12.30;99.90;;;;;;5100445;27;20516;-73
2024/03/15 00:38:52;;;;;;;9.18;8.15;;;12.40;99.90;;;;;;5104767;27;20040;-72
2024/03/15 00:41:18;;;;;;;10.63;8.55;;;12.40;99.90;;;;;;5086921;28;20144;-72
2024/03/15 00:43:47;;;;;;;9.57;8.57;;;12.40;99.90;;;;;;5101558;28;20581;-73
2024/03/15 00:46:14;;;;;;;9.75;8.77;;;12.40;99.90;;;;;;5118638;27;20313;-72
2024/03/15 00:48:43;;;;;;;9.73;8.75;;;12.40;99.90;;;;;;5116559;27;20120;-73
2024/03/15 00:51:08;;;;;;;9.77;8.77;;;12.40;99.90;;;;;;5093436;27;20871;-73
2024/03/15 00:53:36;;;;;;;9.02;8.00;;;12.40;99.90;;;;;;5102070;27;20142;-73
2024/03/15 00:56:02;;;;;;;9.60;8.60;;;12.40;99.90;;;;;;5128451;27;20095;-73
2024/03/15 00:58:28;;;;;;;10.05;8.55;;;12.40;99.90;;;;;;5116012;27;20042;-73
2024/03/15 01:00:54;;;;;;;9.77;7.72;;;12.40;99.90;;;;;;5107590;28;20058;-73
2024/03/15 01:03:19;;;;;;;9.30;7.70;;;12.40;99.90;;;;;;5088150;28;20050;-73
2024/03/15 01:05:45;;;;;;;8.73;7.93;;;12.40;99.90;;;;;;5088247;28;20035;-73
2024/03/15 01:08:12;;;;;;;9.23;8.32;;;12.40;99.90;;;;;;5084551;28;20466;-73
2024/03/15 01:10:38;;;;;;;9.52;7.55;;;12.40;99.90;;;;;;5099111;28;20130;-73
2024/03/15 01:13:03;;;;;;;9.35;7.75;;;12.40;99.90;;;;;;5100786;28;20193;-73
2024/03/15 01:15:29;;;;;;;10.93;8.18;;;12.40;99.90;;;;;;5096738;28;20044;-73
2024/03/15 01:17:55;;;;;;;9.25;8.27;;;12.40;99.90;;;;;;5099053;28;20073;-73
2024/03/15 01:20:21;;;;;;;10.15;8.07;;;12.40;99.90;;;;;;5108032;28;20040;-73
2024/03/15 01:22:47;;;;;;;8.75;7.85;;;12.40;99.90;;;;;;5112635;27;20036;-73
2024/03/15 01:25:16;;;;;;;9.43;7.65;;;12.40;99.90;;;;;;5105047;28;20493;-73
2024/03/15 01:27:42;;;;;;;9.90;7.95;;;12.40;99.90;;;;;;5081526;28;20353;-73
2024/03/15 01:30:09;;;;;;;11.48;8.48;;;12.40;99.90;;;;;;5099067;28;20044;-73
2024/03/15 01:32:36;;;;;;;9.82;7.68;;;12.40;99.90;;;;;;5101604;28;20036;-72
2024/03/15 01:35:05;;;;;;;9.68;8.38;;;12.30;99.90;;;;;;5088484;28;20054;-73
2024/03/15 01:37:30;;;;;;;9.02;8.00;;;12.30;99.90;;;;;;5099296;28;20040;-73
2024/03/15 01:39:59;;;;;;;9.38;8.38;;;12.30;99.90;;;;;;5104085;28;20050;-72
2024/03/15 01:42:25;;;;;;;11.07;8.25;;;12.30;99.90;;;;;;5082115;28;20039;-73
2024/03/15 01:44:53;;;;;;;10.57;8.50;;;12.30;99.90;;;;;;5111292;28;20379;-73
2024/03/15 01:47:20;;;;;;;10.02;8.00;;;12.20;99.90;;;;;;5081983;28;20039;-73
2024/03/15 01:49:48;;;;;;;8.85;7.95;;;12.20;99.90;;;;;;5102907;28;20054;-73
2024/03/15 01:52:14;;;;;;;11.93;8.35;;;12.20;99.90;;;;;;5089163;28;20067;-73
2024/03/15 01:54:40;;;;;;;9.90;8.73;;;12.20;99.90;;;;;;5111452;27;20035;-73
2024/03/15 01:57:07;;;;;;;10.95;8.45;;;12.20;99.90;;;;;;5100046;28;20400;-73
2024/03/15 01:59:33;;;;;;;9.70;8.70;;;12.20;99.90;;;;;;5097449;27;20047;-73
2024/03/15 02:02:03;;;;;;;9.55;8.55;;;12.20;99.90;;;;;;5107670;27;20051;-73
2024/03/15 02:04:33;;;;;;;9.63;8.48;;;12.20;99.90;;;;;;5087806;28;20061;-73
2024/03/15 02:06:59;;;;;;;10.38;8.55;;;12.20;99.90;;;;;;5082104;28;20063;-72
2024/03/15 02:09:28;;;;;;;11.68;9.00;;;12.20;99.90;;;;;;5106582;27;20043;-73
2024/03/15 02:11:57;;;;;;;11.63;8.93;;;12.30;99.90;;;;;;5110404;27;20047;-73
2024/03/15 02:14:23;;;;;;;9.52;8.18;;;12.30;99.90;;;;;;5106842;27;20036;-73
2024/03/15 02:16:50;;;;;;;12.15;9.40;;;12.30;99.90;;;;;;5110411;27;20410;-73
2024/03/15 02:19:16;;;;;;;10.77;8.43;;;12.30;99.90;;;;;;5119581;27;20051;-73
2024/03/15 02:21:43;;;;;;;9.32;8.32;;;12.30;99.90;;;;;;5102563;27;20052;-73
2024/03/15 02:24:10;;;;;;;9.98;8.40;;;12.30;99.90;;;;;;5107670;27;20514;-73
2024/03/15 02:26:39;;;;;;;11.35;9.13;;;12.30;99.90;;;;;;5083152;28;20035;-73
2024/03/15 02:29:08;;;;;;;10.07;8.67;;;12.30;99.90;;;;;;5089866;28;20039;-73
2024/03/15 02:31:35;;;;;;;9.85;8.85;;;12.30;99.90;;;;;;5105062;27;20140;-73
2024/03/15 02:34:03;;;;;;;10.07;9.07;;;12.30;99.90;;;;;;5120374;27;20130;-73
2024/03/15 02:36:29;;;;;;;10.45;8.95;;;12.30;99.90;;;;;;5110259;27;20410;-73
2024/03/15 02:38:56;;;;;;;10.65;8.82;;;12.30;99.90;;;;;;5088751;28;20130;-72
2024/03/15 02:41:22;;;;;;;9.98;8.40;;;12.30;99.90;;;;;;5091154;28;20028;-73
2024/03/15 02:43:48;;;;;;;11.52;9.13;;;12.30;99.90;;;;;;5099919;28;20039;-72
2024/03/15 02:46:16;;;;;;;9.75;8.85;;;12.30;99.90;;;;;;5108212;27;20051;-73
2024/03/15 02:48:43;;;;;;;10.23;9.00;;;12.30;99.90;;;;;;5101309;27;20438;-73
2024/03/15 02:51:12;;;;;;;11.60;9.07;;;12.30;99.90;;;;;;5087908;28;20079;-73
2024/03/15 02:53:38;;;;;;;11.13;9.63;;;12.30;99.90;;;;;;5108858;27;20128;-73
2024/03/15 02:56:04;;;;;;;9.93;8.55;;;12.40;99.90;;;;;;5097684;27;20069;-73
2024/03/15 02:58:30;;;;;;;10.93;9.35;;;12.40;99.90;;;;;;5091529;28;20047;-74
2024/03/15 03:00:56;;;;;;;10.93;9.43;;;12.40;99.90;;;;;;5079250;28;20044;-73
2024/03/15 03:03:23;;;;;;;11.00;9.13;;;12.40;99.90;;;;;;5084646;28;20105;-73
2024/03/15 03:05:49;;;;;;;10.35;8.77;;;12.40;99.90;;;;;;5077383;28;20074;-73
2024/03/15 03:08:15;;;;;;;12.10;8.68;;;12.40;99.90;;;;;;5085188;28;20050;-73
2024/03/15 03:10:41;;;;;;;11.23;8.77;;;12.40;99.90;;;;;;5126595;27;20040;-73
2024/03/15 03:13:07;;;;;;;11.20;9.20;;;12.40;99.90;;;;;;5099342;27;20039;-73
2024/03/15 03:15:33;;;;;;;9.82;8.80;;;12.40;99.90;;;;;;5091306;28;20047;-73
2024/03/15 03:18:00;;;;;;;12.15;10.07;;;12.40;99.90;;;;;;5090733;28;20048;-73
2024/03/15 03:20:32;;;;;;;11.85;10.38;;;12.40;99.90;;;;;;5091482;28;20192;-73
2024/03/15 03:23:02;;;;;;;12.35;9.65;;;12.30;99.90;;;;;;5075059;28;20455;-73
2024/03/15 03:25:28;;;;;;;;;;;12.30;99.90;;;;;;5103211;28;20126;-73
2024/03/15 03:27:54;;;;;;;11.65;9.05;;;12.30;99.90;;;;;;5090265;28;20070;-73
2024/03/15 03:30:20;;;;;;;11.73;9.77;;;12.30;99.90;;;;;;5102568;27;20482;-73
2024/03/15 03:32:46;;;;;;;10.98;9.60;;;12.20;99.90;;;;;;5089282;28;20058;-73
2024/03/15 03:35:12;;;;;;;12.90;9.85;;;12.20;99.90;;;;;;5076013;28;20044;-73
2024/03/15 03:37:37;;;;;;;10.65;9.55;;;12.20;99.90;;;;;;5134602;27;20052;-74
2024/03/15 03:40:13;;;;;;;11.77;10.48;;;12.20;99.90;;;;;;5098028;28;20379;-73
2024/03/15 03:42:43;;;;;;;11.43;10.25;;;12.10;99.90;;;;;;5083764;28;20055;-73
2024/03/15 03:45:15;;;;;;;11.98;10.40;;;12.10;99.90;;;;;;5121595;27;20052;-73
2024/03/15 03:47:49;;;;;;;11.93;10.70;;;12.10;99.90;;;;;;5094276;28;20420;-73
2024/03/15 03:50:18;;;;;;;12.02;10.82;;;12.10;99.90;;;;;;5082774;28;20108;-74
2024/03/15 03:52:45;;;;;;;11.27;10.20;;;12.00;99.90;;;;;;5088867;28;20533;-73
2024/03/15 03:55:11;;;;;;;13.43;11.48;;;12.10;99.90;;;;;;5087838;27;20392;-73
2024/03/15 03:57:37;;;;;;;13.45;10.73;;;12.00;99.90;;;;;;5088051;28;20052;-73
2024/03/15 04:00:07;;;;;;;12.90;11.52;;;12.00;99.90;;;;;;5073284;28;20379;-72
2024/03/15 04:02:34;;;;;;;12.63;10.93;;;12.00;99.90;;;;;;5128113;27;20108;-73
2024/03/15 04:05:00;;;;;;;12.75;11.25;;;12.00;99.90;;;;;;5125559;27;20165;-72
2024/03/15 04:07:29;;;;;;;13.38;11.98;;;12.00;99.90;;;;;;5087153;28;20040;-73
2024/03/15 04:09:55;;;;;;;12.10;10.70;;;12.00;99.90;;;;;;5115960;27;20040;-73
2024/03/15 04:12:21;;;;;;;14.40;11.68;;;12.00;99.90;;;;;;5086594;28;20479;-73
2024/03/15 04:14:49;;;;;;;12.30;11.00;;;12.00;99.90;;;;;;5097586;28;20032;-73
2024/03/15 04:17:16;;;;;;;15.50;13.32;;;12.00;99.90;;;;;;5096295;27;20126;-74
2024/03/15 04:19:43;;;;;;;17.98;13.88;;;11.90;99.90;;;;;;5085723;28;20460;-73
2024/03/15 04:22:10;;;;;;;13.20;11.85;;;11.90;99.90;;;;;;5098853;28;21071;-73
2024/03/15 04:24:40;;;;;;;16.58;13.95;;;11.90;99.90;;;;;;5092628;28;20047;-72
2024/03/15 04:27:08;;;;;;;16.63;13.70;;;11.80;99.90;;;;;;5076276;28;20038;-72
2024/03/15 04:29:37;;;;;;;14.85;13.27;;;11.80;99.90;;;;;;5120450;27;20282;-72
2024/03/15 04:32:03;;;;;;;18.00;15.00;;;11.80;99.90;;;;;;5084458;28;20126;-73
2024/03/15 04:34:30;;;;;;;15.23;13.63;;;11.80;99.90;;;;;;5078757;28;20084;-74
2024/03/15 04:36:59;;;;;;;15.70;14.02;;;11.60;99.90;;;;;;5069584;28;20119;-74
2024/03/15 04:39:25;;;;;;;18.80;15.50;;;11.70;99.90;;;;;;5088444;28;20040;-74
2024/03/15 04:41:50;;;;;;;17.45;14.73;;;11.70;99.90;;;;;;5082186;28;20101;-74
2024/03/15 04:44:16;;;;;;;15.27;13.73;;;11.70;99.90;;;;;;5130173;27;20047;-74
2024/03/15 04:46:43;;;;;;;19.85;17.58;;;11.70;99.90;;;;;;5073684;28;20134;-73
2024/03/15 04:49:08;;;;;;;20.40;17.80;;;11.60;99.90;;;;;;5084762;28;20122;-74
2024/03/15 04:51:34;;;;;;;20.77;16.90;;;11.60;99.90;;;;;;5081184;28;20122;-73
2024/03/15 04:54:00;;;;;;;18.00;16.13;;;11.60;99.90;;;;;;5086780;28;20051;-76
2024/03/15 04:56:26;;;;;;;18.73;16.73;;;11.60;99.90;;;;;;5074045;28;20042;-76
2024/03/15 04:58:52;;;;;;;21.35;18.48;;;11.60;99.90;;;;;;5090414;28;20043;-76
2024/03/15 05:01:18;;;;;;;24.92;19.90;;;11.60;99.90;;;;;;5114075;27;20134;-75
2024/03/15 05:03:43;;;;;;;22.60;18.55;;;11.60;99.90;;;;;;5080810;28;20089;-76
2024/03/15 05:06:13;;;;;;;21.27;18.80;;;11.60;99.90;;;;;;5082985;28;20035;-76
2024/03/15 05:08:39;;;;;;;23.15;20.65;;;11.60;99.90;;;;;;5095354;28;20139;-76
2024/03/15 05:11:04;;;;;;;21.73;19.48;;;11.60;99.90;;;;;;5112651;27;20541;-76
2024/03/15 05:13:30;;;;;;;21.83;19.48;;;11.50;99.90;;;;;;5099003;28;20565;-76
2024/03/15 05:15:56;;;;;;;21.60;19.40;;;11.60;99.90;;;;;;5093363;28;20080;-75
2024/03/15 05:18:21;;;;;;;23.95;21.42;;;11.50;99.90;;;;;;5081629;28;20131;-75
2024/03/15 05:20:48;;;;;;;27.65;23.00;;;11.60;99.90;;;;;;5115285;27;20040;-75
2024/03/15 05:23:13;;;;;;;24.55;21.25;;;11.50;99.90;;;;;;5098662;28;20047;-76
2024/03/15 05:25:40;;;;;;;23.48;20.98;;;11.50;99.90;;;;;;5100161;28;20066;-75
2024/03/15 05:28:09;;;;;;;24.73;21.95;;;11.50;99.90;;;;;;5096117;28;20104;-75
2024/03/15 05:30:36;;;;;;;26.58;23.20;;;11.50;99.90;;;;;;5129887;27;20063;-75
2024/03/15 05:33:02;;;;;;;26.27;23.60;;;11.60;99.90;;;;;;5075693;28;20131;-75
2024/03/15 05:35:29;;;;;;;25.35;22.63;;;11.50;99.90;;;;;;5088944;28;20595;-73
2024/03/15 05:37:55;;;;;;;26.98;24.15;;;11.60;99.90;;;;;;5083069;28;20112;-73
2024/03/15 05:40:24;;;;;;;25.80;23.08;;;11.60;99.90;;;;;;5102255;28;20102;-73
2024/03/15 05:42:50;;;;;;;26.27;23.45;;;11.60;99.90;;;;;;5105039;28;20051;-73
2024/03/15 05:45:17;;;;;;;29.85;25.05;;;11.60;99.90;;;;;;5097089;28;20104;-75
2024/03/15 05:47:43;;;;;;;28.50;25.70;;;11.60;99.90;;;;;;5107574;28;20039;-75
2024/03/15 05:50:09;;;;;;;27.63;24.60;;;11.60;99.90;;;;;;5082010;28;20052;-75
2024/03/15 05:52:35;;;;;;;29.45;25.58;;;11.60;99.90;;;;;;5081702;28;20051;-75
2024/03/15 05:55:01;;;;;;;29.48;26.25;;;11.60;99.90;;;;;;5082676;28;20130;-76
2024/03/15 05:57:28;;;;;;;28.58;25.45;;;11.60;99.90;;;;;;5096491;28;20040;-75
2024/03/15 05:59:59;;;;;;;28.92;25.75;;;11.60;99.90;;;;;;5102236;28;20052;-76
2024/03/15 06:02:25;;;;;;;30.13;25.40;;;11.70;99.90;;;;;;5094238;28;20048;-75
2024/03/15 06:04:50;;;;;;;28.92;25.77;;;11.70;99.90;;;;;;5115922;27;20382;-75
2024/03/15 06:07:16;;;;;;;29.92;26.77;;;11.70;99.90;;;;;;5136850;27;20048;-75
2024/03/15 06:09:42;;;;;;;33.33;29.77;;;11.70;99.90;;;;;;5082398;28;20127;-75
2024/03/15 06:12:08;;;;;;;29.88;26.73;;;11.70;99.90;;;;;;5110047;27;20057;-75
2024/03/15 06:14:34;;;;;;;28.05;25.33;;;11.80;99.90;;;;;;5099978;28;20050;-76
2024/03/15 06:17:00;;;;;;;26.83;23.92;;;11.70;99.90;;;;;;5092220;28;20040;-75
2024/03/15 06:19:26;;;;;;;29.98;26.83;;;11.80;99.90;;;;;;5093420;27;20047;-75
2024/03/15 06:21:53;;;;;;;25.73;23.13;;;11.80;99.90;;;;;;5136494;27;20036;-76
2024/03/15 06:24:21;;;;;;;27.25;24.48;;;11.80;99.90;;;;;;5081396;28;20048;-75
2024/03/15 06:26:47;;;;;;;26.67;24.00;;;11.80;99.90;;;;;;5106712;27;20040;-75
2024/03/15 06:29:16;;;;;;;26.17;23.33;;;11.80;99.90;;;;;;5077454;28;20047;-75
2024/03/15 06:31:43;;;;;;;28.33;25.30;;;11.80;99.90;;;;;;5098248;28;20056;-75
2024/03/15 06:34:09;;;;;;;26.17;23.35;;;11.80;99.90;;;;;;5095627;28;20496;-75
2024/03/15 06:36:41;;;;;;;27.63;24.73;;;11.80;99.90;;;;;;5075426;28;20067;-76
2024/03/15 06:41:54;;;;;;;27.38;24.27;;;11.80;99.90;;;;;;5098655;28;20421;-75
2024/03/15 06:44:25;;;;;;;27.08;24.13;;;11.90;99.90;;;;;;5104393;28;20566;-76
2024/03/15 06:52:35;;;;;;;24.10;21.50;;;11.90;99.90;;;;;;5047811;28;20052;-75
2024/03/15 06:55:02;;;;;;;23.70;21.23;;;11.90;99.90;;;;;;5088606;28;20114;-75
2024/03/15 06:57:28;;;;;;;22.88;20.40;;;11.90;99.90;;;;;;5092081;28;20055;-75
2024/03/15 06:59:54;;;;;;;23.83;21.38;;;11.90;99.90;;;;;;5100586;28;20039;-75
2024/03/15 07:02:21;;;;;;;26.50;23.80;;;11.90;99.90;;;;;;5117472;27;20580;-75
2024/03/15 07:04:50;;;;;;;23.73;21.23;;;11.90;99.90;;;;;;5098005;28;20048;-76
2024/03/15 07:07:17;;;;;;;25.98;23.17;;;11.90;99.90;;;;;;5083598;28;20444;-75
2024/03/15 07:09:43;;;;;;;25.27;22.58;;;11.90;99.90;;;;;;5127094;27;20047;-75
2024/03/15 07:12:14;;;;;;;28.27;25.27;;;11.90;99.90;;;;;;5086690;28;20949;-76
2024/03/15 07:14:41;;;;;;;27.27;24.25;;;11.90;99.90;;;;;;5102652;27;20044;-75
2024/03/15 07:17:09;;;;;;;27.48;23.85;;;12.00;99.90;;;;;;5097440;28;20055;-75
2024/03/15 07:19:35;;;;;;;25.00;21.58;;;11.90;99.90;;;;;;5103298;28;20047;-76
2024/03/15 07:22:01;;;;;;;24.08;21.58;;;12.00;99.90;;;;;;5091253;28;20052;-75
2024/03/15 07:24:27;;;;;;;23.10;20.80;;;12.00;99.90;;;;;;5095311;28;21492;-75
2024/03/15 07:26:53;;;;;;;25.10;22.50;;;11.90;99.90;;;;;;5097860;27;20039;-75
2024/03/15 07:29:19;;;;;;;23.63;20.70;;;11.90;99.90;;;;;;5096569;28;20044;-75
2024/03/15 07:31:45;;;;;;;23.23;20.73;;;12.00;99.90;;;;;;5077177;28;20461;-75
2024/03/15 07:34:13;;;;;;;23.80;21.25;;;12.00;99.90;;;;;;5100040;28;20040;-75
2024/03/15 07:36:39;;;;;;;22.35;20.05;;;12.00;99.90;;;;;;5095323;28;20044;-75
2024/03/15 07:39:07;;;;;;;25.25;20.63;;;12.00;99.90;;;;;;5088505;28;20040;-75
2024/03/15 07:41:34;;;;;;;23.48;20.98;;;12.00;99.90;;;;;;5075724;28;20498;-76
2024/03/15 07:44:03;;;;;;;22.50;19.98;;;12.00;99.90;;;;;;5092627;28;20036;-75
2024/03/15 07:46:29;;;;;;;24.10;20.17;;;12.00;99.90;;;;;;5127961;27;20473;-76
2024/03/15 07:48:57;;;;;;;22.55;20.23;;;12.00;99.90;;;;;;5077763;28;20052;-75
2024/03/15 07:51:24;;;;;;;23.42;20.92;;;12.00;99.90;;;;;;5082685;28;20877;-75
2024/03/15 07:53:49;;;;;;;20.77;18.75;;;12.10;99.90;;;;;;5125851;27;20104;-75
2024/03/15 07:56:16;;;;;;;21.88;19.52;;;12.10;99.90;;;;;;5097547;28;20414;-75
2024/03/15 07:58:42;;;;;;;22.48;18.85;;;12.20;99.90;;;;;;5109716;27;20040;-74
2024/03/15 08:01:08;;;;;;;21.30;19.02;;;12.20;99.90;;;;;;5122588;27;20396;-75
2024/03/15 08:03:34;;;;;;;22.90;20.58;;;12.20;99.90;;;;;;5113743;27;20135;-75
2024/03/15 08:06:02;;;;;;;21.55;19.30;;;12.20;99.90;;;;;;5133703;27;20099;-75
2024/03/15 08:08:27;;;;;;;18.58;16.70;;;12.20;99.90;;;;;;5095742;28;20105;-75
2024/03/15 08:10:54;;;;;;;18.55;16.75;;;12.20;99.90;;;;;;5086800;27;21066;-75
2024/03/15 08:13:25;;;;;;;24.58;17.20;;;12.20;99.90;;;;;;5086081;28;20130;-75
2024/03/15 08:16:18;;;;;;;19.23;17.33;;;12.30;99.90;;;;;;5085738;28;20662;-75
2024/03/15 08:18:48;;;;;;;18.88;16.98;;;12.30;99.90;;;;;;5102797;28;20043;-75
2024/03/15 08:21:15;;;;;;;;;;;12.30;99.90;;;;;;5113631;27;20056;-75
2024/03/15 08:23:45;;;;;;;18.05;16.27;;;12.30;99.90;;;;;;5111582;27;20364;-75
2024/03/15 08:26:14;;;;;;;17.33;15.73;;;12.30;99.90;;;;;;5099921;27;20565;-75
2024/03/15 08:28:40;;;;;;;18.27;16.45;;;12.30;99.90;;;;;;5090583;28;20051;-74
2024/03/15 08:31:07;;;;;;;18.25;16.42;;;12.30;99.90;;;;;;5110954;27;20074;-75
2024/03/15 08:33:34;;;;;;;17.70;15.80;;;12.40;99.90;;;;;;5087121;27;20374;-75
2024/03/15 08:36:00;;;;;;;18.73;15.73;;;12.40;99.90;;;;;;5097133;27;20578;-75
2024/03/15 08:38:26;;;;;;;17.10;15.30;;;12.50;99.90;;;;;;5099622;28;20043;-75
2024/03/15 08:40:52;;;;;;;16.70;14.70;;;12.50;99.90;;;;;;5089014;28;20050;-75
2024/03/15 08:43:18;;;;;;;16.35;14.73;;;12.50;99.90;;;;;;5090878;27;20128;-75
2024/03/15 08:45:43;;;;;;;16.30;14.65;;;12.60;99.90;;;;;;5102264;27;20431;-75
2024/03/15 08:48:12;;;;;;;16.60;14.90;;;12.60;99.90;;;;;;5116743;27;20039;-75
2024/03/15 08:50:38;;;;;;;15.90;14.30;;;12.60;99.90;;;;;;5084741;28;20698;-75
2024/03/15 08:53:07;;;;;;;16.88;14.25;;;12.60;99.90;;;;;;5133550;27;20061;-74
2024/03/15 08:55:33;;;;;;;15.17;13.60;;;12.60;99.90;;;;;;5098498;28;20039;-74
2024/03/15 08:57:59;;;;;;;14.20;12.73;;;12.70;99.90;;;;;;5108074;27;20043;-74
2024/03/15 09:00:25;;;;;;;14.63;12.45;;;12.70;99.90;;;;;;5135528;27;20405;-74
2024/03/15 09:02:51;;;;;;;14.38;12.35;;;12.70;99.90;;;;;;5087157;28;20040;-74
2024/03/15 09:05:19;;;;;;;15.38;11.68;;;12.70;99.90;;;;;;5103980;27;20057;-74
2024/03/15 09:07:45;;;;;;;16.13;11.43;;;12.70;99.90;;;;;;5098758;27;20055;-74
2024/03/15 09:10:13;;;;;;;16.50;11.63;;;12.70;99.90;;;;;;5098419;28;20113;-74
2024/03/15 09:12:43;;;;;;;14.38;11.48;;;12.70;99.90;;;;;;5094557;28;20516;-74
2024/03/15 09:15:11;;;;;;;16.33;11.60;;;12.80;99.90;;;;;;5120383;27;20112;-74
2024/03/15 09:17:37;;;;;;;13.32;11.93;;;12.80;99.90;;;;;;5111984;28;20408;-74
2024/03/15 09:20:14;;;;;;;16.02;12.15;;;12.90;99.90;;;;;;5099452;28;20578;-74
2024/03/15 09:22:40;;;;;;;14.80;11.77;;;12.90;99.90;;;;;;5097221;28;20059;-74
2024/03/15 09:25:06;;;;;;;15.82;11.93;;;13.00;99.90;;;;;;5104980;28;20054;-74
2024/03/15 09:27:36;;;;;;;14.43;12.23;;;13.00;99.90;;;;;;5097624;28;20060;-74
2024/03/15 09:30:16;;;;;;;;;;;13.10;99.90;;;;;;5103270;28;20040;-74
2024/03/15 09:32:44;;;;;;;15.63;12.25;;;13.10;99.90;;;;;;5087330;28;20621;-73
2024/03/15 09:35:12;;;;;;;14.77;11.93;;;13.10;99.90;;;;;;5100105;28;20048;-74
2024/03/15 09:37:46;;;;;;;13.43;11.88;;;13.10;99.90;;;;;;5080629;28;20514;-73
2024/03/15 09:40:17;;;;;;;18.08;11.98;;;13.10;99.90;;;;;;5086266;28;20512;-74
2024/03/15 09:42:48;;;;;;;14.07;11.73;;;13.10;99.90;;;;;;5097275;28;20131;-74
2024/03/15 09:45:17;;;;;;;14.40;10.98;;;13.10;99.90;;;;;;5105098;28;21189;-74
2024/03/15 09:47:49;;;;;;;12.93;10.98;;;13.10;99.90;;;;;;5110482;28;20039;-74
2024/03/15 09:50:16;;;;;;;13.90;10.68;;;13.00;99.90;;;;;;5104098;28;20043;-74
2024/03/15 09:52:43;;;;;;;15.30;11.02;;;13.00;99.90;;;;;;5110308;28;20047;-74
2024/03/15 09:55:16;;;;;;;11.70;9.57;;;13.00;99.90;;;;;;5089732;28;20107;-74
2024/03/15 09:57:48;;;;;;;15.57;9.27;;;13.00;99.90;;;;;;5083724;28;20100;-74
2024/03/15 10:00:16;;;;;;;11.23;7.95;;;13.00;99.90;;;;;;5115063;27;20058;-74
2024/03/15 10:02:47;;;;;;;13.23;7.75;;;13.00;99.90;;;;;;5085128;28;20089;-74
2024/03/15 10:05:16;;;;;;;10.50;6.65;;;13.10;99.90;;;;;;5102641;28;20493;-74
2024/03/15 10:07:43;;;;;;;11.68;6.88;;;13.10;99.90;;;;;;5097717;28;20047;-73
2024/03/15 10:10:12;;;;;;;10.27;5.88;;;13.20;99.90;;;;;;5094493;28;20043;-74
2024/03/15 10:12:45;;;;;;;7.63;4.93;;;13.10;99.90;;;;;;5096986;28;20048;-74
2024/03/15 10:15:17;;;;;;;8.07;5.03;;;13.20;99.90;;;;;;5123506;27;20367;-74
2024/03/15 10:17:45;;;;;;;9.52;5.65;;;13.20;99.90;;;;;;5106794;27;20496;-74
2024/03/15 10:20:18;;;;;;;8.10;5.22;;;13.20;99.90;;;;;;5080468;28;20044;-74
2024/03/15 10:22:45;;;;;;;8.35;4.90;;;13.20;99.90;;;;;;5077082;28;20051;-73
2024/03/15 10:25:16;;;;;;;9.82;4.65;;;13.20;99.90;;;;;;5077930;28;20040;-74
2024/03/15 10:27:45;;;;;;;9.45;5.30;;;13.20;99.90;;;;;;5096994;27;20111;-74
2024/03/15 10:30:25;;;;;;;10.15;5.55;;;13.20;99.90;;;;;;5092105;28;20040;-74
2024/03/15 10:32:57;;;;;;;9.70;5.70;;;13.20;99.90;;;;;;5091558;28;20127;-74
2024/03/15 10:35:24;;;;;;;8.45;5.03;;;13.20;99.90;;;;;;5085662;28;20131;-74
2024/03/15 10:37:54;;;;;;;9.25;5.15;;;13.20;99.90;;;;;;5077402;28;20079;-73
2024/03/15 10:40:21;;;;;;;10.57;4.93;;;13.20;99.90;;;;;;5084577;28;20102;-74
2024/03/15 10:42:48;;;;;;;9.73;4.50;;;13.30;99.90;;;;;;5092543;28;20046;-74
2024/03/15 10:45:16;;;;;;;9.13;4.22;;;13.30;99.90;;;;;;5095060;28;20056;-74
2024/03/15 10:47:43;;;;;;;8.63;3.63;;;13.40;99.90;;;;;;5101861;27;20043;-74
2024/03/15 10:50:12;;;;;;;8.95;3.80;;;13.40;99.90;;;;;;5086354;28;20638;-74
2024/03/15 10:52:43;;;;;;;8.73;4.05;;;13.50;99.90;;;;;;5109393;27;20431;-73
2024/03/15 10:55:16;;;;;;;11.05;4.30;;;13.50;99.90;;;;;;5100422;27;20040;-73
2024/03/15 10:57:43;;;;;;;12.77;4.32;;;13.50;99.90;;;;;;5102493;28;20134;-72
2024/03/15 11:00:19;;;;;;;7.03;3.90;;;13.70;99.90;;;;;;5102990;27;20120;-73
2024/03/15 11:02:45;;;;;;;8.20;3.50;;;13.80;99.90;;;;;;5107236;27;20047;-73
2024/03/15 11:05:22;;;;;;;7.45;3.55;;;13.80;99.90;;;;;;5120773;27;20042;-72
2024/03/15 11:08:13;;;;;;;8.52;4.43;;;13.90;99.90;;;;;;5113332;27;20035;-72
2024/03/15 11:10:40;;;;;;;11.07;3.80;;;13.90;99.90;;;;;;5086963;28;20043;-73
2024/03/15 11:13:07;;;;;;;8.57;4.00;;;13.90;99.90;;;;;;5110595;27;20047;-72
2024/03/15 11:15:37;;;;;;;10.52;3.65;;;13.90;99.90;;;;;;5093376;27;20042;-72
2024/03/15 11:18:04;;;;;;;;;;;14.00;99.90;;;;;;5102620;27;20050;-73
2024/03/15 11:20:45;;;;;;;9.35;4.05;;;14.10;99.90;;;;;;5135486;27;19976;-73
2024/03/15 11:23:16;;;;;;;11.35;4.13;;;14.20;99.90;;;;;;5104687;27;20036;-73
2024/03/15 11:26:07;;;;;;;9.07;4.28;;;14.40;99.90;;;;;;5092057;28;20113;-73
2024/03/15 11:28:35;;;;;;;10.13;4.30;;;14.60;99.90;;;;;;5115290;27;20517;-73
2024/03/15 11:31:01;;;;;;;11.05;4.32;;;14.70;99.90;;;;;;5089091;28;20072;-73
2024/03/15 11:33:28;;;;;;;7.90;4.88;;;14.80;99.90;;;;;;5087691;28;20045;-73
2024/03/15 11:35:54;;;;;;;9.05;4.47;;;14.80;99.90;;;;;;5103240;27;20059;-72
2024/03/15 11:38:21;;;;;;;10.23;4.63;;;14.80;99.90;;;;;;5098475;28;20070;-72
2024/03/15 11:40:47;;;;;;;9.85;4.63;;;14.70;99.90;;;;;;5091814;27;20084;-74
2024/03/15 11:43:14;;;;;;;6.82;3.85;;;14.70;99.90;;;;;;5100047;27;20576;-74
2024/03/15 11:45:41;;;;;;;8.52;4.25;;;14.70;99.90;;;;;;5112952;27;20520;-74
2024/03/15 11:48:28;;;;;;;11.65;4.55;;;14.60;99.90;;;;;;5102537;27;20048;-74
2024/03/15 11:50:54;;;;;;;9.88;4.65;;;14.70;99.90;;;;;;5087250;28;20050;-75
2024/03/15 11:53:22;;;;;;;8.93;3.83;;;14.60;99.90;;;;;;5101818;28;20040;-75
2024/03/15 11:55:49;;;;;;;9.50;3.92;;;14.50;99.90;;;;;;5080772;28;20039;-75
2024/03/15 11:58:17;;;;;;;7.65;4.10;;;14.50;99.90;;;;;;5084363;28;20155;-73
2024/03/15 12:00:49;;;;;;;7.05;4.40;;;14.50;99.90;;;;;;5084340;28;20039;-72
2024/03/15 12:03:16;;;;;;;9.77;5.57;;;14.40;99.90;;;;;;5097479;27;20040;-72
2024/03/15 12:05:43;;;;;;;8.63;5.13;;;14.40;99.90;;;;;;5081003;28;20104;-73
2024/03/15 12:08:20;;;;;;;10.70;5.00;;;14.20;99.90;;;;;;5107428;27;20130;-73
2024/03/15 12:10:48;;;;;;;11.23;5.85;;;14.20;99.90;;;;;;5086073;28;20380;-73
2024/03/15 12:13:24;;;;;;;12.52;5.93;;;14.10;99.90;;;;;;5102966;27;20040;-74
2024/03/15 12:15:54;;;;;;;12.23;6.10;;;14.10;99.90;;;;;;5110653;27;20039;-74
2024/03/15 12:18:21;;;;;;;12.65;6.03;;;14.10;99.90;;;;;;5104621;27;20141;-73
2024/03/15 12:20:50;;;;;;;10.30;6.07;;;14.20;99.90;;;;;;5104697;27;20035;-73
2024/03/15 12:23:17;;;;;;;11.05;6.70;;;14.20;99.90;;;;;;5087162;27;20497;-73
2024/03/15 12:25:43;;;;;;;13.68;5.88;;;14.20;99.90;;;;;;5094460;28;20052;-73
2024/03/15 12:28:14;;;;;;;12.02;6.05;;;14.20;99.90;;;;;;5099083;27;20069;-73
2024/03/15 12:30:45;;;;;;;11.88;6.13;;;14.20;99.90;;;;;;5103985;27;20100;-74
2024/03/15 12:33:11;;;;;;;12.68;7.63;;;14.20;99.90;;;;;;5102198;27;20048;-74
2024/03/15 12:35:38;;;;;;;12.32;7.93;;;14.10;99.90;;;;;;5110328;27;20058;-74
2024/03/15 12:38:05;;;;;;;9.88;8.13;;;14.00;99.90;;;;;;5103667;27;20043;-73
2024/03/15 12:40:31;;;;;;;12.90;8.93;;;14.00;99.90;;;;;;5105427;27;20055;-73
2024/03/15 12:42:57;;;;;;;14.25;9.45;;;14.00;99.90;;;;;;5099577;27;20097;-74
2024/03/15 12:45:23;;;;;;;15.65;9.13;;;14.00;99.90;;;;;;5103843;27;20405;-72
2024/03/15 12:47:48;;;;;;;12.98;7.78;;;14.10;99.90;;;;;;5084272;28;20063;-72